createdAt,value
2019-03-17T00:01:03.321Z,99828.07
2019-03-17T00:03:34.872Z,99819.14
2019-03-17T00:06:07.766Z,99812.97
2019-03-17T00:08:37.745Z,99810.80
2019-03-17T00:11:08.073Z,99801.00
2019-03-17T00:13:38.677Z,99800.31
2019-03-17T00:16:09.151Z,99783.10
2019-03-17T00:18:39.842Z,99784.14
2019-03-17T00:21:10.389Z,99785.80
2019-03-17T00:23:42.019Z,99790.82
2019-03-17T00:26:12.476Z,99784.25
2019-03-17T00:28:44.388Z,99782.92
2019-03-17T00:31:23.625Z,99781.14
2019-03-17T00:33:47.423Z,99788.23
2019-03-17T00:36:18.544Z,99790.89
2019-03-17T00:38:48.888Z,99784.25
2019-03-17T00:41:20.434Z,99779.48
2019-03-17T00:43:50.996Z,99782.63
2019-03-17T00:46:21.493Z,99771.44
2019-03-17T00:48:51.988Z,99773.17
2019-03-17T00:51:22.359Z,99770.89
2019-03-17T00:53:54.546Z,99773.55
2019-03-17T00:56:25.204Z,99766.90
2019-03-17T00:58:56.099Z,99758.00
2019-03-17T01:01:26.601Z,99765.86
2019-03-17T01:03:58.425Z,99765.78
2019-03-17T01:06:29.073Z,99758.77
2019-03-17T01:08:59.457Z,99754.67
2019-03-17T01:11:30.157Z,99748.58
2019-03-17T01:14:00.835Z,99755.71
2019-03-17T01:16:31.724Z,99761.88
2019-03-17T01:19:02.421Z,99758.00
2019-03-17T01:21:33.403Z,99751.25
2019-03-17T01:24:04.775Z,99764.09
2019-03-17T01:26:35.321Z,99750.31
2019-03-17T01:29:05.720Z,99748.51
2019-03-17T01:31:36.551Z,99743.97
2019-03-17T01:34:06.890Z,99738.65
2019-03-17T01:36:37.887Z,99735.22
2019-03-17T01:39:08.344Z,99740.45
2019-03-17T01:41:39.909Z,99729.16
2019-03-17T01:44:10.462Z,99726.98
2019-03-17T01:46:41.218Z,99718.16
2019-03-17T01:49:11.772Z,99716.34
2019-03-17T01:51:42.688Z,99715.86
2019-03-17T01:54:13.535Z,99714.75
2019-03-17T01:56:44.217Z,99706.14
2019-03-17T01:59:14.815Z,99708.31
2019-03-17T02:01:45.190Z,99705.10
2019-03-17T02:04:15.511Z,99717.06
2019-03-17T02:06:45.836Z,99713.08
2019-03-17T02:09:16.370Z,99716.98
2019-03-17T02:11:46.714Z,99725.34
2019-03-17T02:14:17.067Z,99726.58
2019-03-17T02:16:47.743Z,99729.11
2019-03-17T02:19:18.173Z,99728.26
2019-03-17T02:21:48.654Z,99726.56
2019-03-17T02:24:19.090Z,99726.22
2019-03-17T02:26:51.223Z,99715.58
2019-03-17T02:29:21.591Z,99701.59
2019-03-17T02:31:52.058Z,99702.52
2019-03-17T02:34:22.520Z,99700.74
2019-03-17T02:36:54.050Z,99702.73
2019-03-17T02:39:26.221Z,99692.58
2019-03-17T02:41:56.716Z,99693.70
2019-03-17T02:44:27.233Z,99689.70
2019-03-17T02:46:57.666Z,99687.61
2019-03-17T02:49:28.057Z,99685.51
2019-03-17T02:51:58.891Z,99682.55
2019-03-17T02:54:29.459Z,99683.59
2019-03-17T02:56:59.989Z,99682.42
2019-03-17T02:59:30.603Z,99678.63
2019-03-17T03:02:01.022Z,99684.42
2019-03-17T03:04:31.534Z,99685.96
2019-03-17T03:07:02.069Z,99682.42
2019-03-17T03:09:35.280Z,99673.89
2019-03-17T03:12:05.765Z,99669.53
2019-03-17T03:14:36.404Z,99674.93
2019-03-17T03:17:06.752Z,99674.84
2019-03-17T03:19:37.364Z,99679.77
2019-03-17T03:22:07.853Z,99681.50
2019-03-17T03:24:38.310Z,99671.79
2019-03-17T03:27:08.935Z,99665.84
2019-03-17T03:29:39.504Z,99664.48
2019-03-17T03:32:10.148Z,99677.11
2019-03-17T03:34:40.789Z,99659.83
2019-03-17T03:37:11.646Z,99670.46
2019-03-17T03:39:42.426Z,99668.77
2019-03-17T03:42:13.221Z,99663.52
2019-03-17T03:44:43.757Z,99658.48
2019-03-17T03:47:14.268Z,99651.91
2019-03-17T03:49:44.726Z,99658.19
2019-03-17T03:52:16.226Z,99654.95
2019-03-17T03:54:46.557Z,99651.11
2019-03-17T03:57:17.181Z,99648.24
2019-03-17T03:59:47.875Z,99648.98
2019-03-17T04:02:18.978Z,99651.91
2019-03-17T04:04:49.377Z,99641.43
2019-03-17T04:07:21.607Z,99642.95
2019-03-17T04:09:51.995Z,99644.27
2019-03-17T04:12:22.504Z,99643.53
2019-03-17T04:14:54.263Z,99638.84
2019-03-17T04:17:24.708Z,99637.51
2019-03-17T04:19:55.106Z,99637.69
2019-03-17T04:22:25.509Z,99641.28
2019-03-17T04:24:59.651Z,99633.31
2019-03-17T04:27:30.317Z,99630.68
2019-03-17T04:30:01.217Z,99628.00
2019-03-17T04:32:31.950Z,99622.36
2019-03-17T04:35:02.654Z,99627.89
2019-03-17T04:37:34.044Z,99626.21
2019-03-17T04:40:06.027Z,99626.19
2019-03-17T04:42:36.518Z,99618.91
2019-03-17T04:45:07.946Z,99619.84
2019-03-17T04:47:38.324Z,99615.85
2019-03-17T04:50:09.578Z,99605.91
2019-03-17T04:52:40.568Z,99609.91
2019-03-17T04:55:10.979Z,99606.13
2019-03-17T04:57:42.370Z,99605.86
2019-03-17T05:00:13.178Z,99604.63
2019-03-17T05:02:43.731Z,99597.27
2019-03-17T05:05:14.361Z,99602.22
2019-03-17T05:07:44.821Z,99602.97
2019-03-17T05:10:15.420Z,99601.80
2019-03-17T05:12:45.963Z,99595.50
2019-03-17T05:15:16.521Z,99585.62
2019-03-17T05:17:47.343Z,99588.14
2019-03-17T05:20:17.963Z,99581.90
2019-03-17T05:22:49.400Z,99580.91
2019-03-17T05:25:20.107Z,99576.64
2019-03-17T05:27:50.479Z,99581.20
2019-03-17T05:30:20.976Z,99576.66
2019-03-17T05:32:51.404Z,99571.78
2019-03-17T05:35:23.351Z,99562.42
2019-03-17T05:37:53.744Z,99568.42
2019-03-17T05:40:24.092Z,99563.88
2019-03-17T05:42:54.521Z,99563.29
2019-03-17T05:45:25.149Z,99568.25
2019-03-17T05:47:55.565Z,99563.55
2019-03-17T05:50:26.171Z,99559.28
2019-03-17T05:52:57.534Z,99559.77
2019-03-17T05:55:29.386Z,99556.91
2019-03-17T05:57:59.849Z,99555.59
2019-03-17T06:00:30.450Z,99544.03
2019-03-17T06:03:01.046Z,99545.00
2019-03-17T06:05:31.509Z,99554.59
2019-03-17T06:08:02.173Z,99550.33
2019-03-17T06:10:33.068Z,99553.11
2019-03-17T06:13:04.129Z,99550.48
2019-03-17T06:15:34.624Z,99548.01
2019-03-17T06:18:05.114Z,99545.64
2019-03-17T06:20:35.575Z,99550.40
2019-03-17T06:23:05.892Z,99552.94
2019-03-17T06:25:37.695Z,99546.12
2019-03-17T06:28:08.105Z,99542.73
2019-03-17T06:30:38.465Z,99544.64
2019-03-17T06:33:09.276Z,99541.64
2019-03-17T06:35:41.321Z,99536.31
2019-03-17T06:38:12.283Z,99536.22
2019-03-17T06:40:42.656Z,99537.25
2019-03-17T06:43:13.353Z,99536.63
2019-03-17T06:45:43.809Z,99537.56
2019-03-17T06:48:14.328Z,99529.74
2019-03-17T06:50:45.013Z,99525.83
2019-03-17T06:53:15.667Z,99530.36
2019-03-17T06:55:47.225Z,99520.54
2019-03-17T06:58:19.416Z,99528.08
2019-03-17T07:00:50.313Z,99533.27
2019-03-17T07:03:20.685Z,99530.47
2019-03-17T07:05:51.224Z,99523.48
2019-03-17T07:08:21.978Z,99522.63
2019-03-17T07:10:52.508Z,99523.83
2019-03-17T07:13:23.043Z,99521.53
2019-03-17T07:15:53.513Z,99511.00
2019-03-17T07:18:24.191Z,99505.39
2019-03-17T07:20:54.684Z,99498.37
2019-03-17T07:23:25.077Z,99501.48
2019-03-17T07:25:55.510Z,99497.37
2019-03-17T07:28:26.146Z,99508.84
2019-03-17T07:30:57.005Z,99497.37
2019-03-17T07:33:27.510Z,99509.45
2019-03-17T07:35:58.207Z,99497.94
2019-03-17T07:38:29.997Z,99503.52
2019-03-17T07:41:00.815Z,99489.34
2019-03-17T07:43:31.896Z,99491.46
2019-03-17T07:46:02.605Z,99498.77
2019-03-17T07:48:33.574Z,99486.19
2019-03-17T07:51:04.244Z,99501.48
2019-03-17T07:53:34.910Z,99494.00
2019-03-17T07:56:05.641Z,99487.42
2019-03-17T07:58:36.124Z,99498.37
2019-03-17T08:01:06.498Z,99492.77
2019-03-17T08:03:37.303Z,99494.85
2019-03-17T08:06:07.928Z,99477.36
2019-03-17T08:08:41.191Z,99474.31
2019-03-17T08:11:12.011Z,99476.02
2019-03-17T08:13:43.723Z,99475.30
2019-03-17T08:16:16.336Z,99446.30
2019-03-17T08:18:47.333Z,99446.30
2019-03-17T08:21:17.861Z,99460.78
2019-03-17T08:23:48.874Z,99460.78
2019-03-17T08:26:19.307Z,99442.46
2019-03-17T08:28:49.980Z,99448.88
2019-03-17T08:31:21.241Z,99452.98
2019-03-17T08:33:52.149Z,99456.86
2019-03-17T08:36:22.643Z,99453.95
2019-03-17T08:38:53.123Z,99469.39
2019-03-17T08:41:23.559Z,99466.58
2019-03-17T08:43:54.744Z,99464.42
2019-03-17T08:46:25.836Z,99465.70
2019-03-17T08:48:56.375Z,99456.28
2019-03-17T08:51:27.030Z,99475.55
2019-03-17T08:53:57.603Z,99449.10
2019-03-17T08:56:28.375Z,99452.19
2019-03-17T08:58:59.309Z,99466.89
2019-03-17T09:01:30.419Z,99464.50
2019-03-17T09:04:01.353Z,99461.97
2019-03-17T09:06:32.441Z,99456.00
2019-03-17T09:09:04.633Z,99465.80
2019-03-17T09:11:35.432Z,99461.11
2019-03-17T09:14:07.647Z,99453.05
2019-03-17T09:16:38.701Z,99442.89
2019-03-17T09:19:09.917Z,99452.02
2019-03-17T09:21:40.299Z,99453.19
2019-03-17T09:24:17.028Z,99452.11
2019-03-17T09:26:43.505Z,99449.09
2019-03-17T09:29:14.452Z,99439.50
2019-03-17T09:31:45.357Z,99444.14
2019-03-17T09:34:15.867Z,99438.42
2019-03-17T09:36:46.448Z,99429.98
2019-03-17T09:39:17.086Z,99427.89
2019-03-17T09:41:47.568Z,99417.91
2019-03-17T09:44:18.320Z,99417.00
2019-03-17T09:46:48.751Z,99430.38
2019-03-17T09:49:19.189Z,99425.57
2019-03-17T09:51:49.779Z,99422.86
2019-03-17T09:54:21.608Z,99405.57
2019-03-17T09:56:53.610Z,99418.52
2019-03-17T09:59:25.148Z,99408.60
2019-03-17T10:01:56.953Z,99407.06
2019-03-17T10:04:27.359Z,99415.49
2019-03-17T10:06:58.044Z,99415.25
2019-03-17T10:09:30.103Z,99412.26
2019-03-17T10:12:01.328Z,99406.98
2019-03-17T10:14:32.450Z,99406.63
2019-03-17T10:17:03.167Z,99406.66
2019-03-17T10:19:33.963Z,99404.63
2019-03-17T10:22:04.892Z,99396.66
2019-03-17T10:24:36.380Z,99383.21
2019-03-17T10:27:06.992Z,99400.02
2019-03-17T10:29:56.110Z,99394.62
2019-03-17T10:32:27.076Z,99377.39
2019-03-17T10:34:58.376Z,99394.78
2019-03-17T10:37:29.140Z,99393.42
2019-03-17T10:39:59.985Z,99392.68
2019-03-17T10:42:34.081Z,99390.58
2019-03-17T10:45:04.599Z,99387.88
2019-03-17T10:47:37.100Z,99376.67
2019-03-17T10:50:13.654Z,99378.52
2019-03-17T10:52:44.394Z,99373.23
2019-03-17T10:55:14.972Z,99393.12
2019-03-17T10:57:45.764Z,99392.33
2019-03-17T11:00:22.133Z,99385.48
2019-03-17T11:02:52.618Z,99384.94
2019-03-17T11:05:23.165Z,99383.44
2019-03-17T11:07:54.158Z,99372.50
2019-03-17T11:10:24.585Z,99372.45
2019-03-17T11:12:55.420Z,99374.66
2019-03-17T11:15:25.992Z,99356.04
2019-03-17T11:17:56.651Z,99366.36
2019-03-17T11:20:27.172Z,99363.14
2019-03-17T11:22:58.028Z,99371.23
2019-03-17T11:25:28.724Z,99367.07
2019-03-17T11:27:59.528Z,99356.34
2019-03-17T11:30:30.020Z,99357.50
2019-03-17T11:33:00.448Z,99355.40
2019-03-17T11:35:31.160Z,99357.96
2019-03-17T11:38:01.593Z,99363.08
2019-03-17T11:40:32.232Z,99348.36
2019-03-17T11:43:02.760Z,99358.82
2019-03-17T11:45:33.254Z,99353.06
2019-03-17T11:48:03.718Z,99326.80
2019-03-17T11:50:34.311Z,99367.06
2019-03-17T11:53:05.241Z,99354.16
2019-03-17T11:55:35.909Z,99337.30
2019-03-17T11:58:06.996Z,99346.94
2019-03-17T12:00:37.685Z,99327.79
2019-03-17T12:03:08.242Z,99340.20
2019-03-17T12:05:38.796Z,99353.41
2019-03-17T12:08:09.204Z,99345.27
2019-03-17T12:10:40.126Z,99325.40
2019-03-17T12:13:10.634Z,99339.59
2019-03-17T12:15:40.995Z,99339.69
2019-03-17T12:18:12.838Z,99317.75
2019-03-17T12:20:43.457Z,99327.11
2019-03-17T12:23:14.050Z,99308.55
2019-03-17T12:25:44.749Z,99307.91
2019-03-17T12:28:15.436Z,99316.72
2019-03-17T12:30:46.337Z,99309.90
2019-03-17T12:33:16.866Z,99324.38
2019-03-17T12:35:47.346Z,99331.01
2019-03-17T12:38:18.107Z,99331.17
2019-03-17T12:40:48.888Z,99329.20
2019-03-17T12:43:19.393Z,99326.48
2019-03-17T12:45:50.178Z,99328.72
2019-03-17T12:48:20.714Z,99334.97
2019-03-17T12:50:51.435Z,99326.72
2019-03-17T12:53:22.616Z,99309.16
2019-03-17T12:55:53.154Z,99323.56
2019-03-17T12:58:23.924Z,99314.09
2019-03-17T13:00:54.697Z,99308.48
2019-03-17T13:03:25.202Z,99303.44
2019-03-17T13:05:55.863Z,99311.20
2019-03-17T13:08:27.800Z,99306.47
2019-03-17T13:10:59.089Z,99308.02
2019-03-17T13:13:29.920Z,99315.25
2019-03-17T13:16:00.312Z,99312.41
2019-03-17T13:18:31.005Z,99324.59
2019-03-17T13:21:01.701Z,99316.78
2019-03-17T13:23:32.386Z,99320.50
2019-03-17T13:26:02.976Z,99313.44
2019-03-17T13:28:33.610Z,99318.50
2019-03-17T13:31:04.912Z,99318.47
2019-03-17T13:33:36.551Z,99302.23
2019-03-17T13:36:07.076Z,99304.27
2019-03-17T13:38:38.006Z,99311.55
2019-03-17T13:41:08.686Z,99313.08
2019-03-17T13:43:39.217Z,99320.02
2019-03-17T13:46:09.883Z,99314.08
2019-03-17T13:48:40.349Z,99311.34
2019-03-17T13:51:10.761Z,99322.36
2019-03-17T13:53:41.551Z,99312.03
2019-03-17T13:56:13.607Z,99322.03
2019-03-17T13:58:45.501Z,99328.14
2019-03-17T14:01:16.089Z,99329.13
2019-03-17T14:03:47.795Z,99321.20
2019-03-17T14:06:18.482Z,99314.42
2019-03-17T14:08:49.282Z,99314.41
2019-03-17T14:11:19.653Z,99310.89
2019-03-17T14:13:50.511Z,99296.48
2019-03-17T14:16:21.020Z,99298.52
2019-03-17T14:18:52.016Z,99299.70
2019-03-17T14:21:24.521Z,99305.80
2019-03-17T14:23:55.370Z,99306.47
2019-03-17T14:26:26.976Z,99312.55
2019-03-17T14:28:57.651Z,99325.41
2019-03-17T14:31:28.074Z,99310.70
2019-03-17T14:33:58.977Z,99322.20
2019-03-17T14:36:31.528Z,99334.66
2019-03-17T14:39:04.311Z,99334.70
2019-03-17T14:41:35.966Z,99344.70
2019-03-17T14:44:06.813Z,99342.62
2019-03-17T14:46:37.484Z,99346.70
2019-03-17T14:49:08.118Z,99356.68
2019-03-17T14:51:40.190Z,99357.07
2019-03-17T14:54:10.709Z,99344.94
2019-03-17T14:56:41.053Z,99353.72
2019-03-17T14:59:12.541Z,99354.71
2019-03-17T15:01:43.328Z,99355.81
2019-03-17T15:04:14.194Z,99346.14
2019-03-17T15:06:44.701Z,99338.75
2019-03-17T15:09:15.156Z,99335.36
2019-03-17T15:11:45.662Z,99327.59
2019-03-17T15:14:16.290Z,99330.30
2019-03-17T15:16:48.327Z,99323.37
2019-03-17T15:19:18.815Z,99325.55
2019-03-17T15:21:49.216Z,99332.16
2019-03-17T15:24:19.586Z,99331.00
2019-03-17T15:26:50.256Z,99335.06
2019-03-17T15:29:20.871Z,99332.29
2019-03-17T15:31:51.649Z,99334.33
2019-03-17T15:34:22.862Z,99336.50
2019-03-17T15:36:53.763Z,99334.52
2019-03-17T15:39:24.426Z,99339.80
2019-03-17T15:41:55.031Z,99338.25
2019-03-17T15:44:25.504Z,99338.09
2019-03-17T15:46:56.225Z,99331.30
2019-03-17T15:49:26.836Z,99327.81
2019-03-17T15:51:57.677Z,99321.20
2019-03-17T15:54:28.478Z,99325.83
2019-03-17T15:57:00.477Z,99319.76
2019-03-17T15:59:30.898Z,99323.25
2019-03-17T16:02:01.628Z,99327.32
2019-03-17T16:04:33.121Z,99323.49
2019-03-17T16:07:03.614Z,99309.64
2019-03-17T16:09:33.953Z,99315.20
2019-03-17T16:12:04.761Z,99319.25
2019-03-17T16:14:35.249Z,99317.33
2019-03-17T16:17:06.146Z,99324.70
2019-03-17T16:19:36.615Z,99334.91
2019-03-17T16:22:07.416Z,99339.13
2019-03-17T16:24:38.301Z,99340.70
2019-03-17T16:27:10.499Z,99339.30
2019-03-17T16:29:41.287Z,99356.44
2019-03-17T16:32:12.242Z,99363.19
2019-03-17T16:34:42.935Z,99361.41
2019-03-17T16:37:13.652Z,99371.11
2019-03-17T16:39:45.338Z,99368.58
2019-03-17T16:42:16.196Z,99376.02
2019-03-17T16:44:47.095Z,99380.90
2019-03-17T16:47:17.512Z,99394.77
2019-03-17T16:49:47.961Z,99397.24
2019-03-17T16:52:18.829Z,99376.63
2019-03-17T16:54:49.398Z,99386.55
2019-03-17T16:57:19.884Z,99401.95
2019-03-17T16:59:50.403Z,99405.53
2019-03-17T17:02:21.277Z,99405.02
2019-03-17T17:04:51.771Z,99446.31
2019-03-17T17:07:22.403Z,99446.31
2019-03-17T17:09:53.179Z,99449.44
2019-03-17T17:12:23.738Z,99459.25
2019-03-17T17:14:54.260Z,99524.19
2019-03-17T17:17:25.486Z,99469.50
2019-03-17T17:19:56.314Z,99469.50
2019-03-17T17:22:29.069Z,99516.16
2019-03-17T17:24:59.875Z,99532.22
2019-03-17T17:27:30.618Z,99545.17
2019-03-17T17:30:01.965Z,99568.47
2019-03-17T17:32:32.992Z,99575.44
2019-03-17T17:35:04.423Z,99565.06
2019-03-17T17:37:35.216Z,99581.82
2019-03-17T17:40:12.976Z,99594.95
2019-03-17T17:42:44.206Z,99610.39
2019-03-17T17:45:17.014Z,99627.70
2019-03-17T17:47:47.777Z,99623.83
2019-03-17T17:50:20.752Z,99638.13
2019-03-17T17:52:51.639Z,99640.23
2019-03-17T17:55:25.287Z,99634.63
2019-03-17T17:57:55.961Z,99639.91
2019-03-17T18:00:40.520Z,99644.27
2019-03-17T18:03:11.712Z,99654.50
2019-03-17T18:05:42.288Z,99671.22
2019-03-17T18:08:13.027Z,99667.59
2019-03-17T18:10:43.797Z,99673.95
2019-03-17T18:13:14.842Z,99682.63
2019-03-17T18:15:45.328Z,99672.42
2019-03-17T18:18:17.201Z,99680.16
2019-03-17T18:20:48.121Z,99669.32
2019-03-17T18:23:18.731Z,99683.73
2019-03-17T18:25:51.690Z,99680.83
2019-03-17T18:28:22.395Z,99662.86
2019-03-17T18:30:53.110Z,99691.41
2019-03-17T18:33:23.783Z,99710.05
2019-03-17T18:35:54.280Z,99729.42
2019-03-17T18:38:25.806Z,99726.47
2019-03-17T18:40:56.593Z,99721.67
2019-03-17T18:43:27.075Z,99756.70
2019-03-17T18:45:57.583Z,99770.00
2019-03-17T18:48:29.337Z,99792.14
2019-03-17T18:51:00.082Z,99800.14
2019-03-17T18:53:31.341Z,99798.66
2019-03-17T18:56:02.037Z,99795.59
2019-03-17T18:58:36.687Z,99807.80
2019-03-17T19:01:07.136Z,99819.00
2019-03-17T19:03:37.959Z,99824.18
2019-03-17T19:06:10.572Z,99840.50
2019-03-17T19:08:40.922Z,99841.67
2019-03-17T19:11:12.129Z,99837.45
2019-03-17T19:13:42.825Z,99821.70
2019-03-17T19:16:13.439Z,99821.62
2019-03-17T19:18:43.861Z,99817.00
2019-03-17T19:21:14.265Z,99812.09
2019-03-17T19:23:44.883Z,99816.86
2019-03-17T19:26:15.655Z,99815.19
2019-03-17T19:28:46.344Z,99818.48
2019-03-17T19:31:18.495Z,99816.98
2019-03-17T19:33:51.768Z,99813.30
2019-03-17T19:36:24.435Z,99817.38
2019-03-17T19:38:55.200Z,99821.73
2019-03-17T19:41:26.630Z,99819.94
2019-03-17T19:43:57.405Z,99822.90
2019-03-17T19:46:28.059Z,99832.73
2019-03-17T19:48:58.693Z,99837.66
2019-03-17T19:51:29.267Z,99840.78
2019-03-17T19:54:00.323Z,99849.13
2019-03-17T19:56:31.494Z,99862.58
2019-03-17T19:59:02.046Z,99866.08
2019-03-17T20:01:32.598Z,99874.04
2019-03-17T20:04:03.072Z,99875.27
2019-03-17T20:06:34.186Z,99872.52
2019-03-17T20:09:07.491Z,99870.88
2019-03-17T20:11:37.889Z,99871.67
2019-03-17T20:14:08.557Z,99872.62
2019-03-17T20:16:39.562Z,99875.36
2019-03-17T20:19:10.067Z,99871.02
2019-03-17T20:21:42.190Z,99869.11
2019-03-17T20:24:15.534Z,99875.33
2019-03-17T20:26:46.006Z,99873.09
2019-03-17T20:29:18.219Z,99867.41
2019-03-17T20:31:49.082Z,99855.57
2019-03-17T20:34:19.953Z,99862.64
2019-03-17T20:36:50.706Z,99859.92
2019-03-17T20:39:21.332Z,99867.03
2019-03-17T20:41:52.206Z,99857.88
2019-03-17T20:44:22.632Z,99855.22
2019-03-17T20:46:55.383Z,99854.06
2019-03-17T20:49:26.700Z,99854.53
2019-03-17T20:51:57.221Z,99845.70
2019-03-17T20:54:28.061Z,99843.04
2019-03-17T20:57:00.726Z,99841.03
2019-03-17T20:59:31.252Z,99849.30
2019-03-17T21:02:04.113Z,99851.95
2019-03-17T21:04:36.307Z,99838.38
2019-03-17T21:07:07.026Z,99831.81
2019-03-17T21:09:37.856Z,99840.17
2019-03-17T21:12:08.347Z,99845.07
2019-03-17T21:14:39.051Z,99854.77
2019-03-17T21:17:10.207Z,99851.70
2019-03-17T21:19:41.223Z,99860.06
2019-03-17T21:22:11.560Z,99853.88
2019-03-17T21:24:42.583Z,99856.09
2019-03-17T21:27:14.664Z,99886.42
2019-03-17T21:29:45.169Z,99896.19
2019-03-17T21:32:15.514Z,99895.39
2019-03-17T21:34:46.019Z,99901.61
2019-03-17T21:37:17.199Z,99899.38
2019-03-17T21:39:49.190Z,99903.73
2019-03-17T21:42:19.619Z,99894.55
2019-03-17T21:44:50.217Z,99905.05
2019-03-17T21:47:21.835Z,99904.20
2019-03-17T21:49:52.830Z,99911.63
2019-03-17T21:52:23.866Z,99914.81
2019-03-17T21:54:54.365Z,99922.30
2019-03-17T21:57:25.011Z,99918.73
2019-03-17T21:59:56.541Z,99924.82
2019-03-17T22:02:27.144Z,99927.47
2019-03-17T22:04:58.046Z,99924.03
2019-03-17T22:07:28.653Z,99926.21
2019-03-17T22:09:59.707Z,99939.00
2019-03-17T22:12:31.442Z,99943.83
2019-03-17T22:15:02.078Z,99937.14
2019-03-17T22:17:33.360Z,99947.75
2019-03-17T22:20:04.840Z,99957.09
2019-03-17T22:22:35.405Z,99956.97
2019-03-17T22:25:08.507Z,99966.25
2019-03-17T22:27:39.054Z,99978.31
2019-03-17T22:30:17.806Z,99985.89
2019-03-17T22:32:48.414Z,99981.84
2019-03-17T22:35:19.246Z,99993.84
2019-03-17T22:37:49.785Z,99990.72
2019-03-17T22:40:21.444Z,99998.67
2019-03-17T22:42:52.653Z,99997.88
2019-03-17T22:45:23.179Z,99987.59
2019-03-17T22:47:53.897Z,99994.64
2019-03-17T22:50:24.540Z,99992.77
2019-03-17T22:52:56.671Z,99989.71
2019-03-17T22:55:27.213Z,99980.42
2019-03-17T22:57:59.222Z,99990.18
2019-03-17T23:00:34.492Z,99984.09
2019-03-17T23:03:06.948Z,99987.22
2019-03-17T23:05:37.406Z,99989.02
2019-03-17T23:08:08.198Z,99992.45
2019-03-17T23:10:38.660Z,100003.13
2019-03-17T23:13:09.028Z,99997.56
2019-03-17T23:15:39.733Z,100000.75
2019-03-17T23:18:10.502Z,99998.16
2019-03-17T23:20:41.329Z,99992.16
2019-03-17T23:23:11.868Z,100005.33
2019-03-17T23:25:42.218Z,100015.17
2019-03-17T23:28:12.666Z,100015.61
2019-03-17T23:30:43.625Z,100021.86
2019-03-17T23:33:14.418Z,100033.00
2019-03-17T23:35:45.893Z,100035.70
2019-03-17T23:38:16.165Z,100036.56
2019-03-17T23:40:46.662Z,100035.17
2019-03-17T23:43:17.117Z,100033.59
2019-03-17T23:45:47.641Z,100044.20
2019-03-17T23:48:18.364Z,100039.42
2019-03-17T23:50:49.353Z,100033.86
2019-03-17T23:53:19.865Z,100032.63
2019-03-17T23:55:51.948Z,100040.16
2019-03-17T23:58:22.550Z,100038.09
